createdAt,value
2019-03-19T00:00:43.739Z,37.40
2019-03-19T00:02:50.980Z,56.37
2019-03-19T00:04:56.325Z,48.52
2019-03-19T00:07:01.682Z,51.85
2019-03-19T00:09:07.106Z,65.22
2019-03-19T00:11:12.473Z,56.20
2019-03-19T00:13:17.822Z,53.87
2019-03-19T00:15:23.251Z,56.23
2019-03-19T00:17:29.493Z,57.43
2019-03-19T00:19:34.841Z,58.98
2019-03-19T00:21:40.194Z,51.45
2019-03-19T00:23:45.538Z,56.75
2019-03-19T00:25:53.095Z,50.10
2019-03-19T00:27:57.849Z,46.00
2019-03-19T00:30:03.196Z,42.08
2019-03-19T00:32:08.525Z,40.65
2019-03-19T00:34:13.868Z,33.23
2019-03-19T00:36:19.196Z,28.40
2019-03-19T00:38:24.531Z,27.95
2019-03-19T00:40:29.870Z,28.40
2019-03-19T00:42:35.207Z,28.30
2019-03-19T00:44:40.534Z,29.70
2019-03-19T00:46:45.884Z,31.17
2019-03-19T00:48:51.213Z,29.67
2019-03-19T00:50:56.554Z,29.82
2019-03-19T00:53:01.905Z,30.62
2019-03-19T00:55:07.664Z,41.08
2019-03-19T00:57:13.001Z,39.03
2019-03-19T00:59:18.641Z,41.48
2019-03-19T01:01:23.969Z,35.55
2019-03-19T01:03:29.305Z,33.98
2019-03-19T01:05:34.648Z,29.67
2019-03-19T01:07:39.982Z,29.95
2019-03-19T01:09:45.310Z,32.17
2019-03-19T01:11:50.651Z,29.55
2019-03-19T01:13:55.975Z,31.82
2019-03-19T01:16:01.316Z,27.67
2019-03-19T01:18:06.655Z,28.60
2019-03-19T01:20:18.230Z,30.08
2019-03-19T01:22:23.556Z,25.40
2019-03-19T01:24:28.900Z,26.70
2019-03-19T01:26:34.229Z,29.98
2019-03-19T01:28:39.562Z,29.65
2019-03-19T01:30:44.909Z,31.10
2019-03-19T01:32:50.238Z,29.32
2019-03-19T01:34:55.576Z,29.12
2019-03-19T01:37:00.942Z,27.32
2019-03-19T01:39:07.097Z,28.55
2019-03-19T01:41:12.497Z,27.07
2019-03-19T01:43:17.827Z,23.75
2019-03-19T01:45:23.161Z,23.45
2019-03-19T01:47:28.502Z,23.92
2019-03-19T01:49:33.843Z,22.95
2019-03-19T01:51:40.246Z,24.82
2019-03-19T01:53:45.580Z,24.75
2019-03-19T01:55:50.937Z,26.12
2019-03-19T01:57:56.257Z,25.10
2019-03-19T02:00:01.625Z,23.02
2019-03-19T02:02:07.316Z,24.47
2019-03-19T02:04:12.722Z,27.55
2019-03-19T02:06:18.048Z,27.07
2019-03-19T02:08:23.416Z,26.57
2019-03-19T02:10:28.748Z,25.80
2019-03-19T02:12:34.072Z,25.30
2019-03-19T02:14:39.529Z,28.20
2019-03-19T02:16:44.860Z,26.95
2019-03-19T02:18:50.194Z,24.20
2019-03-19T02:20:55.714Z,23.98
2019-03-19T02:23:01.037Z,23.52
2019-03-19T02:25:08.909Z,23.55
2019-03-19T02:27:14.266Z,23.42
2019-03-19T02:29:19.601Z,22.70
2019-03-19T02:31:24.926Z,21.70
2019-03-19T02:33:30.276Z,24.85
2019-03-19T02:35:35.606Z,25.65
2019-03-19T02:37:40.938Z,26.35
2019-03-19T02:39:46.297Z,23.38
2019-03-19T02:41:51.626Z,22.17
2019-03-19T02:43:56.953Z,23.62
2019-03-19T02:46:02.292Z,24.40
2019-03-19T02:48:07.640Z,31.37
2019-03-19T02:50:17.151Z,31.33
2019-03-19T02:52:22.524Z,30.97
2019-03-19T02:54:27.856Z,28.62
2019-03-19T02:56:34.279Z,30.77
2019-03-19T02:58:39.604Z,30.50
2019-03-19T03:00:44.949Z,30.92
2019-03-19T03:02:51.357Z,28.90
2019-03-19T03:04:56.688Z,29.05
2019-03-19T03:07:02.020Z,29.02
2019-03-19T03:09:07.349Z,27.70
2019-03-19T03:11:12.697Z,29.00
2019-03-19T03:13:18.029Z,32.65
2019-03-19T03:15:23.364Z,29.07
2019-03-19T03:17:28.714Z,31.15
2019-03-19T03:19:34.049Z,33.38
2019-03-19T03:21:39.394Z,29.80
2019-03-19T03:23:45.909Z,25.43
2019-03-19T03:25:51.262Z,27.22
2019-03-19T03:27:56.582Z,24.80
2019-03-19T03:30:01.930Z,23.75
2019-03-19T03:32:07.284Z,29.18
2019-03-19T03:34:12.683Z,30.27
2019-03-19T03:36:18.041Z,40.20
2019-03-19T03:38:23.417Z,40.45
2019-03-19T03:40:28.762Z,25.15
2019-03-19T03:42:34.104Z,24.43
2019-03-19T03:44:39.441Z,26.50
2019-03-19T03:46:44.776Z,27.82
2019-03-19T03:48:50.130Z,30.65
2019-03-19T03:50:55.471Z,48.70
2019-03-19T03:53:00.845Z,96.17
2019-03-19T03:55:09.221Z,77.22
2019-03-19T03:57:14.560Z,37.08
2019-03-19T03:59:19.898Z,30.25
2019-03-19T04:01:25.236Z,27.55
2019-03-19T04:03:30.564Z,52.20
2019-03-19T04:05:35.942Z,60.12
2019-03-19T04:08:00.725Z,71.15
2019-03-19T04:12:12.156Z,40.20
2019-03-19T04:14:17.481Z,61.05
2019-03-19T04:16:22.838Z,63.63
2019-03-19T04:18:47.626Z,75.62
2019-03-19T04:22:57.421Z,63.85
2019-03-19T04:25:02.775Z,48.83
2019-03-19T04:27:15.761Z,56.28
2019-03-19T04:29:15.075Z,58.05
2019-03-19T04:31:20.434Z,57.88
2019-03-19T04:33:25.765Z,52.20
2019-03-19T04:35:31.100Z,43.58
2019-03-19T04:37:36.436Z,43.38
2019-03-19T04:39:41.782Z,40.85
2019-03-19T04:41:47.110Z,42.13
2019-03-19T04:43:52.443Z,63.15
2019-03-19T04:46:09.976Z,68.78
2019-03-19T04:48:15.315Z,79.65
2019-03-19T04:50:20.682Z,78.47
2019-03-19T04:52:26.008Z,80.00
2019-03-19T04:54:31.357Z,91.12
2019-03-19T04:56:36.697Z,89.85
2019-03-19T04:58:42.028Z,79.87
2019-03-19T05:00:47.367Z,65.03
2019-03-19T05:02:52.724Z,54.15
2019-03-19T05:04:58.100Z,49.60
2019-03-19T05:07:03.433Z,51.40
2019-03-19T05:09:08.777Z,47.08
2019-03-19T05:11:14.142Z,37.53
2019-03-19T05:13:19.481Z,33.75
2019-03-19T05:15:24.805Z,35.35
2019-03-19T05:17:30.148Z,27.90
2019-03-19T05:19:35.492Z,26.62
2019-03-19T05:21:40.824Z,24.00
2019-03-19T05:23:46.216Z,24.70
2019-03-19T05:25:51.508Z,23.67
2019-03-19T05:27:56.844Z,26.93
2019-03-19T05:30:02.252Z,28.25
2019-03-19T05:32:07.604Z,35.50
2019-03-19T05:34:12.948Z,43.85
2019-03-19T05:36:18.289Z,66.95
2019-03-19T05:38:23.624Z,74.60
2019-03-19T05:40:28.960Z,82.27
2019-03-19T05:42:34.310Z,80.28
2019-03-19T05:44:39.648Z,68.78
2019-03-19T05:46:44.983Z,57.48
2019-03-19T05:48:50.327Z,46.48
2019-03-19T05:50:55.669Z,47.95
2019-03-19T05:53:01.015Z,48.48
2019-03-19T05:55:08.110Z,59.67
2019-03-19T05:57:13.480Z,72.85
2019-03-19T05:59:18.875Z,74.45
2019-03-19T06:01:24.157Z,56.30
2019-03-19T06:03:29.981Z,41.48
2019-03-19T06:05:35.312Z,29.15
2019-03-19T06:07:40.656Z,32.13
2019-03-19T06:09:46.006Z,23.50
2019-03-19T06:11:51.338Z,27.17
2019-03-19T06:13:56.672Z,30.35
2019-03-19T06:16:02.030Z,32.05
2019-03-19T06:18:07.360Z,27.93
2019-03-19T06:20:14.899Z,34.00
2019-03-19T06:22:20.247Z,35.28
2019-03-19T06:24:25.573Z,32.17
2019-03-19T06:26:30.916Z,33.92
2019-03-19T06:28:36.269Z,32.08
2019-03-19T06:30:41.598Z,37.20
2019-03-19T06:32:46.934Z,38.20
2019-03-19T06:34:52.285Z,36.93
2019-03-19T06:36:58.684Z,34.08
2019-03-19T06:39:05.704Z,29.65
2019-03-19T06:41:11.061Z,33.48
2019-03-19T06:43:16.434Z,32.45
2019-03-19T06:45:23.200Z,33.70
2019-03-19T06:47:28.856Z,36.20
2019-03-19T06:49:34.199Z,33.25
2019-03-19T06:51:39.542Z,35.78
2019-03-19T06:53:44.896Z,32.20
2019-03-19T06:55:50.240Z,30.62
2019-03-19T06:57:55.582Z,36.65
2019-03-19T07:00:00.917Z,41.33
2019-03-19T07:02:06.285Z,36.25
2019-03-19T07:04:11.629Z,41.55
2019-03-19T07:06:16.973Z,41.33
2019-03-19T07:08:22.320Z,34.00
2019-03-19T07:10:27.660Z,36.85
2019-03-19T07:12:32.995Z,34.67
2019-03-19T07:14:38.335Z,50.78
2019-03-19T07:16:43.676Z,40.65
2019-03-19T07:18:49.013Z,33.70
2019-03-19T07:20:54.360Z,28.47
2019-03-19T07:22:59.687Z,25.97
2019-03-19T07:25:05.990Z,35.98
2019-03-19T07:27:11.376Z,33.15
2019-03-19T07:29:16.716Z,28.35
2019-03-19T07:31:30.413Z,20.95
2019-03-19T07:33:29.045Z,23.77
2019-03-19T07:35:34.400Z,27.75
2019-03-19T07:37:39.767Z,21.25
2019-03-19T07:39:45.106Z,27.93
2019-03-19T07:41:50.460Z,25.65
2019-03-19T07:43:55.813Z,22.17
2019-03-19T07:46:01.152Z,31.55
2019-03-19T07:48:06.526Z,29.02
2019-03-19T07:50:16.863Z,24.63
2019-03-19T07:52:22.217Z,20.02
2019-03-19T07:54:27.564Z,27.50
2019-03-19T07:56:32.924Z,17.02
2019-03-19T07:58:45.270Z,15.85
2019-03-19T08:00:45.269Z,14.93
2019-03-19T08:02:50.621Z,17.12
2019-03-19T08:04:55.977Z,18.45
2019-03-19T08:07:01.320Z,13.98
2019-03-19T08:09:07.078Z,16.02
2019-03-19T08:11:13.142Z,8.10
2019-03-19T08:13:19.704Z,11.15
2019-03-19T08:15:25.041Z,9.95
2019-03-19T08:17:30.402Z,16.45
2019-03-19T08:19:36.812Z,7.45
2019-03-19T08:21:43.213Z,14.90
2019-03-19T08:23:48.562Z,10.20
2019-03-19T08:25:53.897Z,5.58
2019-03-19T08:27:59.229Z,5.85
2019-03-19T08:30:10.941Z,6.40
2019-03-19T08:32:16.258Z,7.00
2019-03-19T08:34:21.588Z,6.28
2019-03-19T08:36:26.941Z,6.35
2019-03-19T08:38:33.333Z,7.72
2019-03-19T08:40:38.679Z,8.40
2019-03-19T08:42:44.036Z,8.65
2019-03-19T08:44:49.364Z,8.45
2019-03-19T08:46:54.698Z,6.95
2019-03-19T08:49:00.041Z,5.03
2019-03-19T08:51:05.369Z,3.77
2019-03-19T08:53:10.705Z,3.62
2019-03-19T08:55:16.067Z,5.95
2019-03-19T08:57:21.636Z,5.40
2019-03-19T08:59:26.969Z,4.25
2019-03-19T09:01:32.328Z,5.25
2019-03-19T09:03:37.664Z,6.92
2019-03-19T09:05:43.002Z,4.90
2019-03-19T09:07:48.354Z,6.65
2019-03-19T09:09:53.680Z,6.17
2019-03-19T09:11:59.011Z,5.20
2019-03-19T09:14:04.370Z,5.17
2019-03-19T09:16:09.693Z,6.62
2019-03-19T09:18:16.152Z,5.03
2019-03-19T09:20:21.677Z,4.55
2019-03-19T09:22:29.883Z,4.20
2019-03-19T09:24:33.974Z,3.50
2019-03-19T09:26:39.304Z,3.75
2019-03-19T09:28:44.635Z,9.25
2019-03-19T09:30:49.980Z,12.90
2019-03-19T09:32:55.312Z,3.58
2019-03-19T09:35:00.652Z,2.98
2019-03-19T09:37:05.992Z,4.05
2019-03-19T09:39:11.331Z,7.90
2019-03-19T09:41:16.667Z,7.55
2019-03-19T09:43:22.013Z,10.58
2019-03-19T09:45:27.347Z,7.80
2019-03-19T09:47:32.750Z,3.15
2019-03-19T09:49:38.139Z,3.52
2019-03-19T09:51:43.498Z,3.35
2019-03-19T09:53:48.830Z,5.53
2019-03-19T09:55:54.185Z,4.05
2019-03-19T09:57:59.721Z,4.22
2019-03-19T10:00:16.455Z,6.90
2019-03-19T10:02:23.823Z,6.47
2019-03-19T10:04:28.750Z,5.25
2019-03-19T10:06:34.080Z,7.33
2019-03-19T10:08:39.445Z,10.93
2019-03-19T10:10:44.896Z,9.90
2019-03-19T10:13:02.300Z,24.23
2019-03-19T10:15:09.009Z,302.38
2019-03-19T10:17:14.379Z,141.65
2019-03-19T10:19:19.727Z,86.42
2019-03-19T10:21:25.179Z,12.23
2019-03-19T10:23:30.514Z,11.12
2019-03-19T10:25:37.945Z,11.95
2019-03-19T10:27:42.834Z,28.38
2019-03-19T10:29:48.168Z,4.95
2019-03-19T10:31:53.506Z,5.22
2019-03-19T10:33:58.846Z,4.10
2019-03-19T10:36:04.180Z,5.20
2019-03-19T10:38:09.505Z,4.00
2019-03-19T10:40:34.298Z,3.55
2019-03-19T10:44:44.056Z,2.42
2019-03-19T10:46:49.393Z,7.33
2019-03-19T10:48:54.710Z,4.47
2019-03-19T10:51:00.049Z,5.33
2019-03-19T10:53:05.381Z,3.37
2019-03-19T10:55:10.720Z,3.45
2019-03-19T10:57:16.081Z,3.30
2019-03-19T10:59:21.411Z,4.00
2019-03-19T11:01:26.755Z,4.67
2019-03-19T11:03:32.249Z,4.90
2019-03-19T11:05:37.569Z,5.05
2019-03-19T11:07:42.906Z,3.60
2019-03-19T11:09:48.236Z,4.50
2019-03-19T11:11:53.582Z,3.95
2019-03-19T11:13:58.913Z,4.97
2019-03-19T11:16:04.277Z,28.80
2019-03-19T11:18:10.673Z,10.18
2019-03-19T11:20:17.345Z,6.00
2019-03-19T11:22:23.765Z,4.65
2019-03-19T11:24:29.158Z,10.15
2019-03-19T11:26:34.573Z,5.92
2019-03-19T11:28:39.892Z,5.20
2019-03-19T11:30:45.248Z,4.97
2019-03-19T11:32:50.585Z,6.65
2019-03-19T11:34:55.935Z,6.35
2019-03-19T11:37:02.344Z,5.70
2019-03-19T11:39:08.511Z,7.03
2019-03-19T11:41:13.841Z,6.22
2019-03-19T11:43:19.178Z,9.45
2019-03-19T11:45:24.939Z,9.23
2019-03-19T11:47:30.337Z,6.90
2019-03-19T11:49:35.664Z,11.10
2019-03-19T11:51:41.005Z,8.85
2019-03-19T11:53:46.366Z,8.83
2019-03-19T11:55:51.694Z,28.27
2019-03-19T11:57:57.811Z,21.87
2019-03-19T12:00:11.046Z,6.10
2019-03-19T12:02:12.641Z,18.23
2019-03-19T12:04:17.981Z,10.05
2019-03-19T12:06:24.492Z,15.75
2019-03-19T12:08:29.829Z,15.38
2019-03-19T12:10:35.173Z,4.42
2019-03-19T12:12:40.515Z,6.08
2019-03-19T12:14:47.317Z,34.90
2019-03-19T12:16:52.983Z,15.70
2019-03-19T12:18:58.329Z,8.93
2019-03-19T12:21:03.660Z,7.80
2019-03-19T12:23:10.076Z,7.37
2019-03-19T12:25:15.428Z,9.55
2019-03-19T12:27:20.910Z,7.25
2019-03-19T12:29:26.242Z,5.60
2019-03-19T12:31:31.960Z,5.45
2019-03-19T12:33:41.116Z,3.75
2019-03-19T12:35:44.298Z,3.37
2019-03-19T12:37:49.649Z,8.15
2019-03-19T12:39:54.985Z,8.53
2019-03-19T12:42:00.340Z,6.20
2019-03-19T12:44:05.705Z,7.10
2019-03-19T12:46:11.018Z,7.28
2019-03-19T12:48:16.424Z,6.15
2019-03-19T12:50:26.474Z,5.50
2019-03-19T12:52:31.804Z,7.05
2019-03-19T12:54:37.994Z,3.85
2019-03-19T12:56:43.398Z,2.80
2019-03-19T12:58:48.716Z,4.22
2019-03-19T13:00:54.054Z,3.35
2019-03-19T13:02:59.437Z,4.08
2019-03-19T13:05:06.593Z,4.50
2019-03-19T13:07:11.989Z,5.17
2019-03-19T13:09:18.574Z,5.95
2019-03-19T13:11:23.865Z,7.22
2019-03-19T13:13:29.228Z,10.13
2019-03-19T13:15:34.557Z,5.55
2019-03-19T13:17:39.890Z,5.62
2019-03-19T13:19:45.247Z,13.00
2019-03-19T13:21:50.595Z,15.85
2019-03-19T13:23:55.924Z,7.65
2019-03-19T13:26:01.287Z,13.28
2019-03-19T13:28:06.626Z,15.90
2019-03-19T13:30:17.195Z,16.07
2019-03-19T13:32:22.536Z,4.25
2019-03-19T13:34:28.007Z,9.93
2019-03-19T13:36:33.337Z,11.28
2019-03-19T13:38:38.688Z,6.35
2019-03-19T13:40:44.183Z,9.08
2019-03-19T13:42:49.510Z,7.58
2019-03-19T13:44:54.841Z,6.78
2019-03-19T13:47:00.189Z,8.18
2019-03-19T13:49:05.523Z,11.80
2019-03-19T13:51:10.860Z,9.40
2019-03-19T13:53:16.202Z,8.95
2019-03-19T13:55:22.567Z,8.93
2019-03-19T13:57:27.914Z,7.25
2019-03-19T13:59:35.829Z,11.35
2019-03-19T14:01:40.253Z,8.83
2019-03-19T14:03:45.582Z,6.67
2019-03-19T14:05:50.993Z,4.70
2019-03-19T14:07:56.320Z,7.95
2019-03-19T14:10:01.662Z,17.75
2019-03-19T14:12:07.005Z,13.15
2019-03-19T14:14:12.373Z,9.70
2019-03-19T14:16:17.712Z,12.90
2019-03-19T14:18:23.052Z,4.83
2019-03-19T14:20:28.390Z,9.90
2019-03-19T14:22:33.725Z,16.42
2019-03-19T14:24:39.086Z,9.00
2019-03-19T14:26:44.413Z,5.85
2019-03-19T14:28:49.753Z,9.10
2019-03-19T14:31:07.678Z,13.98
2019-03-19T14:33:02.062Z,13.08
2019-03-19T14:35:08.547Z,10.55
2019-03-19T14:37:14.058Z,18.37
2019-03-19T14:39:19.402Z,9.35
2019-03-19T14:41:24.745Z,26.73
2019-03-19T14:43:30.117Z,24.75
2019-03-19T14:45:35.469Z,22.07
2019-03-19T14:47:40.865Z,14.25
2019-03-19T14:49:48.780Z,9.15
2019-03-19T14:51:53.183Z,11.18
2019-03-19T14:53:58.524Z,11.28
2019-03-19T14:56:03.870Z,13.98
2019-03-19T14:58:09.209Z,14.50
2019-03-19T15:00:22.040Z,10.75
2019-03-19T15:02:27.387Z,7.00
2019-03-19T15:04:32.725Z,15.85
2019-03-19T15:06:38.074Z,12.30
2019-03-19T15:08:43.411Z,21.33
2019-03-19T15:10:48.752Z,20.30
2019-03-19T15:12:54.126Z,18.15
2019-03-19T15:14:59.464Z,17.85
2019-03-19T15:17:05.360Z,14.68
2019-03-19T15:19:10.852Z,14.80
2019-03-19T15:21:16.271Z,10.48
2019-03-19T15:23:21.724Z,15.30
2019-03-19T15:25:27.051Z,16.48
2019-03-19T15:27:32.408Z,17.57
2019-03-19T15:29:37.799Z,10.82
2019-03-19T15:31:43.140Z,8.38
2019-03-19T15:33:48.480Z,9.80
2019-03-19T15:35:53.806Z,9.88
2019-03-19T15:37:59.142Z,9.98
2019-03-19T15:40:07.108Z,20.02
2019-03-19T15:42:12.462Z,21.48
2019-03-19T15:44:17.824Z,20.12
2019-03-19T15:46:23.170Z,17.05
2019-03-19T15:48:28.515Z,22.37
2019-03-19T15:50:33.856Z,26.70
2019-03-19T15:52:39.181Z,15.28
2019-03-19T15:54:45.496Z,13.95
2019-03-19T15:56:50.849Z,13.38
2019-03-19T15:58:56.192Z,14.38
2019-03-19T16:01:01.605Z,18.52
2019-03-19T16:03:06.946Z,9.98
2019-03-19T16:05:13.129Z,12.85
2019-03-19T16:07:18.482Z,11.48
2019-03-19T16:09:23.843Z,15.50
2019-03-19T16:11:29.184Z,18.25
2019-03-19T16:13:34.580Z,14.93
2019-03-19T16:15:39.920Z,17.05
2019-03-19T16:17:45.260Z,24.05
2019-03-19T16:19:50.589Z,16.93
2019-03-19T16:21:55.935Z,23.55
2019-03-19T16:24:01.262Z,19.90
2019-03-19T16:26:06.608Z,14.30
2019-03-19T16:28:11.944Z,13.15
2019-03-19T16:30:19.378Z,23.50
2019-03-19T16:32:24.777Z,18.80
2019-03-19T16:34:30.226Z,44.75
2019-03-19T16:36:35.565Z,43.45
2019-03-19T16:38:41.982Z,26.12
2019-03-19T16:40:47.346Z,32.60
2019-03-19T16:42:52.677Z,24.35
2019-03-19T16:44:58.012Z,53.30
2019-03-19T16:47:03.410Z,98.33
2019-03-19T16:49:08.744Z,119.45
2019-03-19T16:51:14.100Z,233.05
2019-03-19T16:53:19.477Z,302.30
2019-03-19T16:55:24.830Z,558.65
2019-03-19T16:57:30.184Z,270.02
2019-03-19T16:59:35.565Z,48.60
2019-03-19T17:01:42.049Z,156.10
2019-03-19T17:03:47.557Z,156.52
2019-03-19T17:05:53.993Z,221.70
2019-03-19T17:07:59.668Z,107.40
2019-03-19T17:10:08.276Z,190.47
2019-03-19T17:12:13.639Z,272.55
2019-03-19T17:14:18.996Z,115.90
2019-03-19T17:16:24.342Z,111.70
2019-03-19T17:18:29.704Z,279.80
2019-03-19T17:20:35.045Z,275.87
2019-03-19T17:22:40.396Z,224.20
2019-03-19T17:24:45.807Z,158.78
2019-03-19T17:26:51.202Z,153.10
2019-03-19T17:28:56.548Z,122.80
2019-03-19T17:31:01.939Z,151.78
2019-03-19T17:33:07.449Z,228.92
2019-03-19T17:35:12.804Z,191.70
2019-03-19T17:37:18.255Z,136.00
2019-03-19T17:39:23.604Z,159.85
2019-03-19T17:41:28.955Z,200.07
2019-03-19T17:43:34.315Z,148.38
2019-03-19T17:45:39.653Z,177.65
2019-03-19T17:47:45.073Z,96.30
2019-03-19T17:49:53.325Z,206.87
2019-03-19T17:51:59.736Z,132.07
2019-03-19T17:54:05.094Z,214.82
2019-03-19T17:56:27.300Z,233.30
2019-03-19T17:58:32.649Z,139.45
2019-03-19T18:00:42.605Z,155.12
2019-03-19T18:02:47.957Z,147.50
2019-03-19T18:04:53.298Z,129.27
2019-03-19T18:06:58.637Z,108.65
2019-03-19T18:09:06.310Z,112.95
2019-03-19T18:11:11.652Z,124.80
2019-03-19T18:13:17.001Z,130.18
2019-03-19T18:15:22.369Z,130.00
2019-03-19T18:17:27.700Z,122.87
2019-03-19T18:19:33.052Z,120.92
2019-03-19T18:21:38.416Z,114.22
2019-03-19T18:23:43.760Z,83.55
2019-03-19T18:25:49.095Z,77.27
2019-03-19T18:27:55.520Z,70.45
2019-03-19T18:30:00.856Z,65.62
2019-03-19T18:32:06.296Z,56.28
2019-03-19T18:34:11.701Z,51.25
2019-03-19T18:36:17.064Z,44.50
2019-03-19T18:38:22.389Z,47.70
2019-03-19T18:40:29.355Z,55.05
2019-03-19T18:42:34.729Z,56.90
2019-03-19T18:44:40.056Z,59.03
2019-03-19T18:46:45.396Z,54.88
2019-03-19T18:48:50.769Z,49.33
2019-03-19T18:50:56.172Z,46.40
2019-03-19T18:53:01.521Z,45.48
2019-03-19T18:55:07.735Z,49.35
2019-03-19T18:57:13.068Z,51.58
2019-03-19T18:59:19.487Z,50.00
2019-03-19T19:01:24.851Z,53.10
2019-03-19T19:03:30.180Z,55.63
2019-03-19T19:05:35.516Z,61.90
2019-03-19T19:07:40.887Z,62.93
2019-03-19T19:09:46.228Z,71.87
2019-03-19T19:11:51.565Z,79.60
2019-03-19T19:13:56.915Z,87.17
2019-03-19T19:16:02.245Z,94.97
2019-03-19T19:18:07.591Z,125.55
2019-03-19T19:20:16.677Z,151.78
2019-03-19T19:22:22.019Z,151.55
2019-03-19T19:24:27.373Z,145.60
2019-03-19T19:26:32.734Z,144.97
2019-03-19T19:28:38.068Z,169.32
2019-03-19T19:30:43.417Z,183.90
2019-03-19T19:32:48.886Z,173.43
2019-03-19T19:34:54.227Z,170.22
2019-03-19T19:36:59.564Z,160.25
2019-03-19T19:39:07.293Z,155.78
2019-03-19T19:41:12.627Z,157.00
2019-03-19T19:43:17.972Z,150.35
2019-03-19T19:45:23.367Z,134.47
2019-03-19T19:47:28.700Z,140.10
2019-03-19T19:49:34.049Z,148.10
2019-03-19T19:51:39.396Z,149.82
2019-03-19T19:53:44.809Z,142.65
2019-03-19T19:55:50.152Z,153.75
2019-03-19T19:57:55.507Z,165.22
2019-03-19T20:00:02.128Z,163.60
2019-03-19T20:02:09.180Z,168.37
2019-03-19T20:04:14.664Z,210.25
2019-03-19T20:06:20.136Z,232.50
2019-03-19T20:08:25.480Z,248.70
2019-03-19T20:10:30.904Z,259.87
2019-03-19T20:12:36.576Z,258.47
2019-03-19T20:14:41.925Z,273.40
2019-03-19T20:16:47.323Z,299.12
2019-03-19T20:18:52.654Z,299.98
2019-03-19T20:20:58.076Z,283.45
2019-03-19T20:23:03.422Z,274.30
2019-03-19T20:25:08.765Z,274.27
2019-03-19T20:27:15.176Z,283.40
2019-03-19T20:29:20.567Z,282.07
2019-03-19T20:31:25.913Z,300.18
2019-03-19T20:33:32.320Z,311.45
2019-03-19T20:35:37.771Z,354.18
2019-03-19T20:37:43.117Z,412.02
2019-03-19T20:39:48.453Z,366.85
2019-03-19T20:41:53.871Z,361.48
2019-03-19T20:43:59.227Z,357.02
2019-03-19T20:46:04.957Z,358.93
2019-03-19T20:48:10.389Z,365.77
2019-03-19T20:50:21.724Z,375.27
2019-03-19T20:52:27.147Z,380.73
2019-03-19T20:54:32.508Z,393.60
2019-03-19T20:56:37.859Z,393.23
2019-03-19T20:58:43.906Z,404.10
2019-03-19T21:00:49.336Z,386.95
2019-03-19T21:02:54.740Z,390.40
2019-03-19T21:05:00.162Z,358.55
2019-03-19T21:07:05.636Z,392.00
2019-03-19T21:09:10.981Z,362.68
2019-03-19T21:11:16.330Z,346.18
2019-03-19T21:13:21.770Z,350.48
2019-03-19T21:15:28.310Z,343.60
2019-03-19T21:17:33.715Z,336.65
2019-03-19T21:19:39.072Z,347.45
2019-03-19T21:21:44.479Z,360.80
2019-03-19T21:23:49.816Z,440.30
2019-03-19T21:25:55.238Z,413.30
2019-03-19T21:28:00.581Z,409.75
2019-03-19T21:30:09.443Z,415.47
2019-03-19T21:32:15.968Z,431.63
2019-03-19T21:34:21.314Z,429.55
2019-03-19T21:36:26.666Z,425.83
2019-03-19T21:38:32.083Z,404.62
2019-03-19T21:40:37.418Z,391.12
2019-03-19T21:42:42.774Z,391.70
2019-03-19T21:44:48.154Z,398.20
2019-03-19T21:46:53.499Z,377.20
2019-03-19T21:48:58.904Z,370.27
2019-03-19T21:51:05.335Z,362.70
2019-03-19T21:53:10.681Z,351.62
2019-03-19T21:55:16.096Z,325.15
2019-03-19T21:57:22.532Z,328.77
2019-03-19T21:59:27.947Z,307.80
2019-03-19T22:01:33.289Z,300.93
2019-03-19T22:03:38.658Z,277.80
2019-03-19T22:05:44.167Z,256.75
2019-03-19T22:07:50.690Z,248.43
2019-03-19T22:09:56.113Z,259.92
2019-03-19T22:12:01.450Z,250.25
2019-03-19T22:14:06.875Z,243.35
2019-03-19T22:16:13.319Z,242.22
2019-03-19T22:18:18.924Z,233.30
2019-03-19T22:20:24.331Z,232.83
2019-03-19T22:22:29.684Z,224.92
2019-03-19T22:24:35.093Z,211.22
2019-03-19T22:26:40.444Z,213.92
2019-03-19T22:28:45.865Z,219.10
2019-03-19T22:30:51.198Z,217.45
2019-03-19T22:32:56.544Z,214.82
2019-03-19T22:35:01.903Z,217.95
2019-03-19T22:37:07.425Z,217.87
2019-03-19T22:39:12.763Z,212.88
2019-03-19T22:41:18.151Z,198.32
2019-03-19T22:43:25.797Z,200.45
2019-03-19T22:45:30.456Z,175.42
2019-03-19T22:47:35.814Z,176.82
2019-03-19T22:49:42.224Z,169.90
2019-03-19T22:51:47.569Z,163.30
2019-03-19T22:53:52.929Z,151.53
2019-03-19T22:55:58.292Z,152.45
2019-03-19T22:58:03.657Z,151.72
2019-03-19T23:00:14.797Z,158.60
2019-03-19T23:02:21.800Z,169.65
2019-03-19T23:04:27.642Z,184.20
2019-03-19T23:06:33.169Z,205.67
2019-03-19T23:08:38.965Z,218.12
2019-03-19T23:10:44.300Z,212.53
2019-03-19T23:12:49.690Z,188.70
2019-03-19T23:14:55.028Z,182.22
2019-03-19T23:17:00.372Z,180.15
2019-03-19T23:19:05.747Z,177.15
2019-03-19T23:21:11.076Z,193.52
2019-03-19T23:23:16.480Z,212.32
2019-03-19T23:25:21.927Z,216.68
2019-03-19T23:27:27.272Z,207.10
2019-03-19T23:29:32.688Z,200.28
2019-03-19T23:31:38.117Z,213.03
2019-03-19T23:33:44.733Z,220.25
2019-03-19T23:35:50.140Z,216.02
2019-03-19T23:37:55.584Z,202.47
2019-03-19T23:40:00.995Z,196.60
2019-03-19T23:42:06.512Z,191.90
2019-03-19T23:44:11.935Z,197.68
2019-03-19T23:46:17.344Z,198.28
2019-03-19T23:48:22.755Z,202.07
2019-03-19T23:50:28.202Z,212.05
2019-03-19T23:52:33.611Z,233.30
2019-03-19T23:54:38.951Z,227.20
2019-03-19T23:56:44.393Z,217.45
2019-03-19T23:58:49.809Z,203.07
